Flight Track Log - Related Links

Times and Time Zones

All times are in EST time to prevent confusion due to time zone crossing. See the N478SP flight status page for this flight to view local times or setup timezone preferences in your user account.


Time Position Orientation Groundspeed Altitude Reporting Facility
EST Latitude Longitude Course Direction KTS MPH feet Rate Location/Type
Mon 11:15:21 AM 30.2203 -82.5753 343° North 119 137 2,300  Level Jacksonville Center
Mon 11:16:21 AM 30.2411 -82.5825 343° North 96 110 3,200 800 Climbing Jacksonville Center
Mon 11:17:21 AM 30.2600 -82.5847 354° North 81 93 3,900 650 Climbing Jacksonville Center
Mon 11:18:21 AM 30.2808 -82.5894 349° North 76 87 4,500 689 Climbing Jacksonville Center
Mon 11:18:22 AM 30.2808 -82.5919 270° West 76 87 4,600 700 Climbing Jacksonville Center
Mon 11:19:21 AM 30.3039 -82.5942 355° North 76 87 5,200 538 Climbing Jacksonville Center
Mon 11:19:40 AM 30.3081 -82.5967 333° Northwest 79 91 5,300 400 Climbing Jacksonville Center
Mon 11:20:21 AM 30.3308 -82.5967 360° North 76 87 5,600 295 Climbing Jacksonville Center
Mon 11:20:41 AM 30.3392 -82.6014 334° Northwest 98 113 5,600 100 Level Jacksonville Center
Mon 11:21:21 AM 30.3644 -82.6014 360° North 94 108 5,700 98 Climbing Jacksonville Center
Mon 11:21:42 AM 30.3706 -82.6061 326° Northwest 115 132 5,700 -100 Level Jacksonville Center
Mon 11:22:21 AM 30.3978 -82.6108 351° North 109 125 5,600 -100 Descending Jacksonville Center
Mon 11:22:42 AM 30.4103 -82.6131 351° North 134 154 5,600 300 Level Jacksonville Center
Mon 11:23:21 AM 30.4311 -82.6203 343° North 122 140 5,900 295 Climbing Jacksonville Center
Mon 11:23:43 AM 30.4417 -82.6228 348° North 120 138 5,900 98 Level Jacksonville Center
Mon 11:24:22 AM 30.4647 -82.6300 345° North 122 140 6,000 100 Climbing Jacksonville Center
Mon 11:24:43 AM 30.4750 -82.6347 338° Northwest 123 142 6,000  Level Jacksonville Center
Mon 11:25:21 AM 30.4981 -82.6369 355° North 122 140 6,000 98 Level Jacksonville Center
Mon 11:25:44 AM 30.5083 -82.6417 338° Northwest 122 140 6,100 100 Climbing Jacksonville Center
Mon 11:26:21 AM 30.5294 -82.6442 354° North 122 140 6,100  Level Jacksonville Center
Mon 11:27:21 AM 30.5650 -82.6561 344° North 122 140 6,100  Level Jacksonville Center
Mon 11:27:51 AM 30.5817 -82.6608 346° North 125 144 6,100 -66 Level Jacksonville Center
Mon 11:28:52 AM 30.6172 -82.6681 350° North 125 144 6,000 -99 Descending Jacksonville Center
Mon 11:29:52 AM 30.6506 -82.6753 349° North 128 147 5,900 -94 Descending Jacksonville Center
Mon 11:30:59 AM 30.6903 -82.6825 351° North 128 147 5,800 -55 Descending Jacksonville Center
Mon 11:31:42 AM 30.7153 -82.6872 351° North 129 148 5,800  Level Jacksonville Center
Mon 11:32:48 AM 30.7569 -82.6919 354° North 130 150 5,800 -47 Level Jacksonville Center
Mon 11:33:49 AM 30.7906 -82.6992 350° North 130 150 5,700 -49 Descending Jacksonville Center
Mon 11:34:50 AM 30.8281 -82.7111 345° North 129 148 5,700 52 Level Jacksonville Center
Mon 11:35:45 AM 30.8572 -82.7183 348° North 129 148 5,800 52 Climbing Jacksonville Center
Mon 11:36:46 AM 30.8928 -82.7303 344° North 126 145 5,800 50 Level Jacksonville Center
Mon 11:37:46 AM 30.9261 -82.7375 349° North 124 143 5,900 104 Climbing Jacksonville Center
Mon 11:38:41 AM 30.9575 -82.7472 345° North 122 140 6,000 49 Climbing Jacksonville Center
Mon 11:39:48 AM 30.9950 -82.7519 354° North 124 143 6,000 45 Level Jacksonville Center
Mon 11:40:54 AM 31.0306 -82.7592 350° North 123 142 6,100 47 Climbing Jacksonville Center
Mon 11:41:55 AM 31.0661 -82.7664 350° North 124 143 6,100  Level Jacksonville Center
Mon 11:42:49 AM 31.0975 -82.7736 349° North 124 143 6,100 55 Level Jacksonville Center
Mon 11:43:44 AM 31.1267 -82.7808 348° North 123 142 6,200 49 Climbing Jacksonville Center
Mon 11:44:51 AM 31.1664 -82.7906 348° North 125 144 6,200 -47 Level Jacksonville Center
Mon 11:45:51 AM 31.1997 -82.8003 346° North 126 145 6,100 -59 Descending Jacksonville Center
Mon 11:46:33 AM 31.2247 -82.8028 355° North 127 146 6,100 -59 Level Jacksonville Center
Mon 11:47:33 AM 31.2583 -82.8125 346° North 133 153 6,000 -200 Descending Jacksonville Center
Mon 11:48:33 AM 31.2958 -82.8197 351° North 133 153 5,700 -300 Descending Jacksonville Center
Mon 11:49:33 AM 31.3292 -82.8269 350° North 128 147 5,400 -300 Descending Jacksonville Center

Login

Don't have an account? Register now (free) for customized features, flight alerts, and more!